sensor_id;sensor_type;location;lat;lon;timestamp;pressure;altitude;pressure_sealevel;temperature;humidity
76128;BME280;64873;50.102;14.434;2023-11-19T00:00:15;99614.50;;;2.99;86.57
76128;BME280;64873;50.102;14.434;2023-11-19T00:02:41;99598.47;;;3.34;88.20
76128;BME280;64873;50.102;14.434;2023-11-19T00:05:07;99581.75;;;3.26;87.01
76128;BME280;64873;50.102;14.434;2023-11-19T00:07:39;99579.13;;;3.17;86.90
76128;BME280;64873;50.102;14.434;2023-11-19T00:10:15;99571.03;;;3.19;87.08
76128;BME280;64873;50.102;14.434;2023-11-19T00:12:48;99560.47;;;3.19;86.42
76128;BME280;64873;50.102;14.434;2023-11-19T00:15:15;99545.75;;;3.00;87.67
76128;BME280;64873;50.102;14.434;2023-11-19T00:17:42;99544.97;;;3.24;86.90
76128;BME280;64873;50.102;14.434;2023-11-19T00:20:14;99540.03;;;3.29;87.94
76128;BME280;64873;50.102;14.434;2023-11-19T00:22:41;99535.53;;;3.13;87.79
76128;BME280;64873;50.102;14.434;2023-11-19T00:25:09;99531.75;;;3.24;88.34
76128;BME280;64873;50.102;14.434;2023-11-19T00:27:36;99527.44;;;3.15;87.80
76128;BME280;64873;50.102;14.434;2023-11-19T00:30:03;99528.94;;;3.34;88.29
76128;BME280;64873;50.102;14.434;2023-11-19T00:32:31;99512.94;;;3.43;88.06
76128;BME280;64873;50.102;14.434;2023-11-19T00:34:56;99505.53;;;3.47;88.73
76128;BME280;64873;50.102;14.434;2023-11-19T00:37:22;99505.34;;;3.24;87.50
76128;BME280;64873;50.102;14.434;2023-11-19T00:39:47;99498.06;;;3.26;88.21
76128;BME280;64873;50.102;14.434;2023-11-19T00:42:13;99510.97;;;3.37;86.07
76128;BME280;64873;50.102;14.434;2023-11-19T00:44:39;99516.72;;;3.33;85.79
76128;BME280;64873;50.102;14.434;2023-11-19T00:47:04;99496.09;;;3.44;85.13
76128;BME280;64873;50.102;14.434;2023-11-19T00:49:30;99484.03;;;3.34;85.01
76128;BME280;64873;50.102;14.434;2023-11-19T00:51:58;99486.50;;;3.52;84.01
76128;BME280;64873;50.102;14.434;2023-11-19T00:54:24;99482.56;;;3.47;83.70
76128;BME280;64873;50.102;14.434;2023-11-19T00:56:54;99476.63;;;3.29;85.31
76128;BME280;64873;50.102;14.434;2023-11-19T00:59:20;99475.28;;;3.09;84.93
76128;BME280;64873;50.102;14.434;2023-11-19T01:01:46;99470.66;;;3.27;85.70
76128;BME280;64873;50.102;14.434;2023-11-19T01:04:14;99471.66;;;3.51;86.48
76128;BME280;64873;50.102;14.434;2023-11-19T01:06:39;99485.69;;;3.67;84.46
76128;BME280;64873;50.102;14.434;2023-11-19T01:09:05;99475.63;;;3.55;84.70
76128;BME280;64873;50.102;14.434;2023-11-19T01:11:31;99474.56;;;3.96;86.59
76128;BME280;64873;50.102;14.434;2023-11-19T01:13:56;99462.91;;;3.26;84.95
76128;BME280;64873;50.102;14.434;2023-11-19T01:16:22;99449.41;;;3.29;85.73
76128;BME280;64873;50.102;14.434;2023-11-19T01:18:48;99453.19;;;3.18;85.93
76128;BME280;64873;50.102;14.434;2023-11-19T01:21:14;99439.31;;;3.16;86.11
76128;BME280;64873;50.102;14.434;2023-11-19T01:23:40;99443.28;;;3.20;86.78
76128;BME280;64873;50.102;14.434;2023-11-19T01:26:08;99430.59;;;3.24;87.10
76128;BME280;64873;50.102;14.434;2023-11-19T01:28:35;99435.03;;;3.23;87.36
76128;BME280;64873;50.102;14.434;2023-11-19T01:31:00;99410.28;;;3.24;87.95
76128;BME280;64873;50.102;14.434;2023-11-19T01:33:26;99427.94;;;3.32;86.38
76128;BME280;64873;50.102;14.434;2023-11-19T01:35:53;99419.50;;;3.20;87.46
76128;BME280;64873;50.102;14.434;2023-11-19T01:38:18;99398.75;;;3.01;87.31
76128;BME280;64873;50.102;14.434;2023-11-19T01:40:44;99389.66;;;3.11;88.01
76128;BME280;64873;50.102;14.434;2023-11-19T01:43:09;99391.78;;;3.40;88.21
76128;BME280;64873;50.102;14.434;2023-11-19T01:45:37;99377.91;;;3.22;87.14
76128;BME280;64873;50.102;14.434;2023-11-19T01:48:03;99379.88;;;3.53;87.86
76128;BME280;64873;50.102;14.434;2023-11-19T01:50:30;99371.88;;;3.69;87.17
76128;BME280;64873;50.102;14.434;2023-11-19T01:52:55;99347.38;;;3.28;86.17
76128;BME280;64873;50.102;14.434;2023-11-19T01:55:26;99349.53;;;3.32;87.14
76128;BME280;64873;50.102;14.434;2023-11-19T01:57:55;99355.78;;;3.39;86.28
76128;BME280;64873;50.102;14.434;2023-11-19T02:00:24;99366.97;;;3.50;86.96
76128;BME280;64873;50.102;14.434;2023-11-19T02:02:51;99376.06;;;3.39;86.51
76128;BME280;64873;50.102;14.434;2023-11-19T02:05:17;99366.97;;;3.50;86.30
76128;BME280;64873;50.102;14.434;2023-11-19T02:07:43;99367.94;;;3.57;85.48
76128;BME280;64873;50.102;14.434;2023-11-19T02:10:09;99355.06;;;3.62;86.65
76128;BME280;64873;50.102;14.434;2023-11-19T02:12:42;99336.94;;;3.51;86.75
76128;BME280;64873;50.102;14.434;2023-11-19T02:15:09;99329.00;;;3.59;86.38
76128;BME280;64873;50.102;14.434;2023-11-19T02:17:35;99325.31;;;3.68;85.07
76128;BME280;64873;50.102;14.434;2023-11-19T02:20:05;99320.47;;;3.40;85.56
76128;BME280;64873;50.102;14.434;2023-11-19T02:22:34;99294.06;;;3.40;86.56
76128;BME280;64873;50.102;14.434;2023-11-19T02:25:04;99285.13;;;3.33;87.07
76128;BME280;64873;50.102;14.434;2023-11-19T02:30:16;99309.53;;;3.43;86.81
76128;BME280;64873;50.102;14.434;2023-11-19T02:32:42;99305.03;;;3.60;86.95
76128;BME280;64873;50.102;14.434;2023-11-19T02:35:08;99291.09;;;3.35;86.88
76128;BME280;64873;50.102;14.434;2023-11-19T02:37:34;99298.78;;;3.53;86.95
76128;BME280;64873;50.102;14.434;2023-11-19T02:40:00;99303.56;;;3.50;86.54
76128;BME280;64873;50.102;14.434;2023-11-19T02:42:29;99302.31;;;3.77;85.19
76128;BME280;64873;50.102;14.434;2023-11-19T02:44:54;99302.25;;;3.45;86.09
76128;BME280;64873;50.102;14.434;2023-11-19T02:47:20;99295.69;;;3.41;86.90
76128;BME280;64873;50.102;14.434;2023-11-19T02:49:46;99291.22;;;3.42;86.98
76128;BME280;64873;50.102;14.434;2023-11-19T02:52:13;99276.25;;;3.26;87.73
76128;BME280;64873;50.102;14.434;2023-11-19T02:54:39;99276.59;;;3.23;87.08
76128;BME280;64873;50.102;14.434;2023-11-19T02:57:06;99267.69;;;3.24;88.10
76128;BME280;64873;50.102;14.434;2023-11-19T02:59:35;99264.38;;;3.30;88.21
76128;BME280;64873;50.102;14.434;2023-11-19T03:02:05;99260.09;;;3.21;87.62
76128;BME280;64873;50.102;14.434;2023-11-19T03:04:36;99265.38;;;3.29;87.53
76128;BME280;64873;50.102;14.434;2023-11-19T03:07:03;99262.38;;;3.32;87.84
76128;BME280;64873;50.102;14.434;2023-11-19T03:09:28;99254.16;;;3.19;87.89
76128;BME280;64873;50.102;14.434;2023-11-19T03:11:55;99246.00;;;3.37;87.30
76128;BME280;64873;50.102;14.434;2023-11-19T03:14:20;99226.13;;;3.18;87.64
76128;BME280;64873;50.102;14.434;2023-11-19T03:16:45;99212.75;;;3.19;88.56
76128;BME280;64873;50.102;14.434;2023-11-19T03:19:14;99219.19;;;3.17;88.53
76128;BME280;64873;50.102;14.434;2023-11-19T03:21:40;99215.97;;;3.38;87.70
76128;BME280;64873;50.102;14.434;2023-11-19T03:24:05;99215.66;;;3.33;87.93
76128;BME280;64873;50.102;14.434;2023-11-19T03:26:32;99207.16;;;3.45;88.27
76128;BME280;64873;50.102;14.434;2023-11-19T03:28:59;99204.69;;;3.75;88.42
76128;BME280;64873;50.102;14.434;2023-11-19T03:31:24;99194.28;;;3.51;86.98
76128;BME280;64873;50.102;14.434;2023-11-19T03:33:50;99200.88;;;3.55;88.26
76128;BME280;64873;50.102;14.434;2023-11-19T03:36:15;99195.53;;;3.63;88.21
76128;BME280;64873;50.102;14.434;2023-11-19T03:38:41;99196.44;;;3.78;86.82
76128;BME280;64873;50.102;14.434;2023-11-19T03:41:16;99190.22;;;3.63;86.49
76128;BME280;64873;50.102;14.434;2023-11-19T03:43:42;99177.72;;;3.57;87.61
76128;BME280;64873;50.102;14.434;2023-11-19T03:46:18;99164.78;;;3.70;86.85
76128;BME280;64873;50.102;14.434;2023-11-19T03:48:44;99169.66;;;3.81;86.33
76128;BME280;64873;50.102;14.434;2023-11-19T03:51:11;99171.31;;;3.82;86.36
76128;BME280;64873;50.102;14.434;2023-11-19T03:53:46;99160.13;;;3.72;87.11
76128;BME280;64873;50.102;14.434;2023-11-19T03:56:12;99164.13;;;3.68;86.41
76128;BME280;64873;50.102;14.434;2023-11-19T03:58:39;99161.84;;;3.65;86.57
76128;BME280;64873;50.102;14.434;2023-11-19T04:01:05;99171.47;;;3.81;87.62
76128;BME280;64873;50.102;14.434;2023-11-19T04:03:31;99168.25;;;3.70;88.18
76128;BME280;64873;50.102;14.434;2023-11-19T04:05:56;99155.25;;;3.84;86.98
76128;BME280;64873;50.102;14.434;2023-11-19T04:08:22;99156.56;;;4.11;88.37
76128;BME280;64873;50.102;14.434;2023-11-19T04:10:48;99140.50;;;4.12;89.07
76128;BME280;64873;50.102;14.434;2023-11-19T04:13:13;99131.97;;;3.87;88.55
76128;BME280;64873;50.102;14.434;2023-11-19T04:15:39;99134.50;;;4.33;90.01
76128;BME280;64873;50.102;14.434;2023-11-19T04:18:04;99118.28;;;3.98;88.07
76128;BME280;64873;50.102;14.434;2023-11-19T04:20:30;99127.00;;;3.84;87.54
76128;BME280;64873;50.102;14.434;2023-11-19T04:22:57;99103.63;;;3.73;87.58
76128;BME280;64873;50.102;14.434;2023-11-19T04:25:22;99104.81;;;3.93;87.15
76128;BME280;64873;50.102;14.434;2023-11-19T04:27:49;99095.28;;;3.84;86.96
76128;BME280;64873;50.102;14.434;2023-11-19T04:30:15;99106.22;;;4.19;88.77
76128;BME280;64873;50.102;14.434;2023-11-19T04:32:40;99082.47;;;3.96;88.73
76128;BME280;64873;50.102;14.434;2023-11-19T04:35:06;99085.03;;;4.04;88.66
76128;BME280;64873;50.102;14.434;2023-11-19T04:37:32;99089.91;;;3.78;88.79
76128;BME280;64873;50.102;14.434;2023-11-19T04:39:57;99090.50;;;3.65;89.32
76128;BME280;64873;50.102;14.434;2023-11-19T04:42:23;99077.59;;;3.70;89.14
76128;BME280;64873;50.102;14.434;2023-11-19T04:44:49;99064.59;;;3.83;88.84
76128;BME280;64873;50.102;14.434;2023-11-19T04:47:15;99072.88;;;3.57;89.14
76128;BME280;64873;50.102;14.434;2023-11-19T04:49:40;99064.06;;;3.65;90.00
76128;BME280;64873;50.102;14.434;2023-11-19T04:52:08;99042.88;;;3.50;88.37
76128;BME280;64873;50.102;14.434;2023-11-19T04:54:34;99041.56;;;3.69;88.86
76128;BME280;64873;50.102;14.434;2023-11-19T04:56:59;99029.88;;;4.01;90.10
76128;BME280;64873;50.102;14.434;2023-11-19T04:59:24;99014.41;;;3.75;89.42
76128;BME280;64873;50.102;14.434;2023-11-19T05:01:50;99019.00;;;3.43;89.89
76128;BME280;64873;50.102;14.434;2023-11-19T05:04:15;99019.06;;;3.35;90.62
76128;BME280;64873;50.102;14.434;2023-11-19T05:06:41;99006.41;;;3.45;92.06
76128;BME280;64873;50.102;14.434;2023-11-19T05:09:06;99008.66;;;3.57;90.67
76128;BME280;64873;50.102;14.434;2023-11-19T05:11:37;98996.94;;;3.36;90.24
76128;BME280;64873;50.102;14.434;2023-11-19T05:14:04;98997.16;;;3.50;90.61
76128;BME280;64873;50.102;14.434;2023-11-19T05:16:30;98999.44;;;3.53;90.27
76128;BME280;64873;50.102;14.434;2023-11-19T05:18:55;99002.41;;;3.35;90.80
76128;BME280;64873;50.102;14.434;2023-11-19T05:21:21;99004.88;;;3.36;91.08
76128;BME280;64873;50.102;14.434;2023-11-19T05:23:46;99007.00;;;4.08;92.40
76128;BME280;64873;50.102;14.434;2023-11-19T05:26:22;99008.69;;;3.86;90.36
76128;BME280;64873;50.102;14.434;2023-11-19T05:28:48;99005.56;;;3.68;90.43
76128;BME280;64873;50.102;14.434;2023-11-19T05:31:15;98992.78;;;3.57;90.51
76128;BME280;64873;50.102;14.434;2023-11-19T05:33:40;98976.53;;;3.83;90.61
76128;BME280;64873;50.102;14.434;2023-11-19T05:36:06;98969.16;;;3.78;89.35
76128;BME280;64873;50.102;14.434;2023-11-19T05:38:36;98966.59;;;3.70;88.82
76128;BME280;64873;50.102;14.434;2023-11-19T05:41:02;98964.75;;;3.56;89.73
76128;BME280;64873;50.102;14.434;2023-11-19T05:43:27;98960.13;;;3.58;89.69
76128;BME280;64873;50.102;14.434;2023-11-19T05:45:53;98955.56;;;3.66;89.50
76128;BME280;64873;50.102;14.434;2023-11-19T05:48:18;98949.94;;;3.99;89.08
76128;BME280;64873;50.102;14.434;2023-11-19T05:50:44;98949.56;;;3.87;90.35
76128;BME280;64873;50.102;14.434;2023-11-19T05:53:10;98954.22;;;3.85;89.20
76128;BME280;64873;50.102;14.434;2023-11-19T05:55:39;98954.94;;;3.64;90.06
76128;BME280;64873;50.102;14.434;2023-11-19T05:58:26;98951.66;;;3.77;90.97
76128;BME280;64873;50.102;14.434;2023-11-19T06:00:56;98946.53;;;3.46;90.98
76128;BME280;64873;50.102;14.434;2023-11-19T06:03:22;98943.78;;;3.69;91.33
76128;BME280;64873;50.102;14.434;2023-11-19T06:05:49;98933.13;;;3.62;91.25
76128;BME280;64873;50.102;14.434;2023-11-19T06:08:14;98934.47;;;3.43;91.75
76128;BME280;64873;50.102;14.434;2023-11-19T06:10:40;98922.94;;;3.59;91.93
76128;BME280;64873;50.102;14.434;2023-11-19T06:13:06;98925.69;;;3.66;92.13
76128;BME280;64873;50.102;14.434;2023-11-19T06:15:32;98922.31;;;3.72;92.89
76128;BME280;64873;50.102;14.434;2023-11-19T06:17:58;98934.13;;;3.61;92.04
76128;BME280;64873;50.102;14.434;2023-11-19T06:20:26;98937.00;;;3.89;91.82
76128;BME280;64873;50.102;14.434;2023-11-19T06:22:54;98943.53;;;3.79;92.05
76128;BME280;64873;50.102;14.434;2023-11-19T06:25:19;98935.00;;;3.77;92.77
76128;BME280;64873;50.102;14.434;2023-11-19T06:27:44;98925.69;;;3.66;92.51
76128;BME280;64873;50.102;14.434;2023-11-19T06:30:10;98906.81;;;3.69;92.80
76128;BME280;64873;50.102;14.434;2023-11-19T06:32:37;98909.09;;;3.72;92.60
76128;BME280;64873;50.102;14.434;2023-11-19T06:35:02;98929.06;;;3.89;91.91
76128;BME280;64873;50.102;14.434;2023-11-19T06:37:30;98928.88;;;3.91;92.25
76128;BME280;64873;50.102;14.434;2023-11-19T06:39:55;98918.84;;;3.86;92.62
76128;BME280;64873;50.102;14.434;2023-11-19T06:42:21;98915.03;;;3.89;92.64
76128;BME280;64873;50.102;14.434;2023-11-19T06:44:46;98918.38;;;3.68;93.36
76128;BME280;64873;50.102;14.434;2023-11-19T06:47:11;98928.97;;;3.83;93.71
76128;BME280;64873;50.102;14.434;2023-11-19T06:49:37;98928.06;;;4.05;92.88
76128;BME280;64873;50.102;14.434;2023-11-19T06:52:03;98927.25;;;4.05;92.91
76128;BME280;64873;50.102;14.434;2023-11-19T06:54:29;98921.75;;;3.91;92.29
76128;BME280;64873;50.102;14.434;2023-11-19T06:56:56;98907.53;;;3.92;91.74
76128;BME280;64873;50.102;14.434;2023-11-19T06:59:22;98922.78;;;4.05;91.46
76128;BME280;64873;50.102;14.434;2023-11-19T07:01:48;98906.91;;;4.05;91.95
76128;BME280;64873;50.102;14.434;2023-11-19T07:04:13;98901.91;;;3.95;91.36
76128;BME280;64873;50.102;14.434;2023-11-19T07:06:39;98906.59;;;4.15;91.45
76128;BME280;64873;50.102;14.434;2023-11-19T07:09:06;98912.94;;;3.99;91.66
76128;BME280;64873;50.102;14.434;2023-11-19T07:11:38;98916.91;;;4.10;91.52
76128;BME280;64873;50.102;14.434;2023-11-19T07:14:05;98904.72;;;3.79;91.69
76128;BME280;64873;50.102;14.434;2023-11-19T07:16:32;98913.09;;;3.97;91.39
76128;BME280;64873;50.102;14.434;2023-11-19T07:19:00;98926.69;;;3.94;91.61
76128;BME280;64873;50.102;14.434;2023-11-19T07:21:26;98906.19;;;3.82;92.20
76128;BME280;64873;50.102;14.434;2023-11-19T07:23:53;98918.03;;;3.86;92.14
76128;BME280;64873;50.102;14.434;2023-11-19T07:26:19;98908.00;;;3.96;92.49
76128;BME280;64873;50.102;14.434;2023-11-19T07:28:44;98911.75;;;4.01;92.20
76128;BME280;64873;50.102;14.434;2023-11-19T07:31:10;98906.81;;;3.98;92.43
76128;BME280;64873;50.102;14.434;2023-11-19T07:33:36;98901.75;;;4.33;92.88
76128;BME280;64873;50.102;14.434;2023-11-19T07:36:02;98898.34;;;4.39;91.03
76128;BME280;64873;50.102;14.434;2023-11-19T07:38:27;98905.50;;;4.24;91.38
76128;BME280;64873;50.102;14.434;2023-11-19T07:40:53;98886.44;;;4.28;92.22
76128;BME280;64873;50.102;14.434;2023-11-19T07:43:18;98901.75;;;4.33;92.02
76128;BME280;64873;50.102;14.434;2023-11-19T07:45:43;98899.47;;;4.30;92.56
76128;BME280;64873;50.102;14.434;2023-11-19T07:48:10;98894.25;;;4.00;92.60
76128;BME280;64873;50.102;14.434;2023-11-19T07:50:39;98893.47;;;4.21;92.80
76128;BME280;64873;50.102;14.434;2023-11-19T07:53:09;98909.69;;;4.33;93.22
76128;BME280;64873;50.102;14.434;2023-11-19T07:55:34;98913.34;;;4.32;93.23
76128;BME280;64873;50.102;14.434;2023-11-19T07:58:00;98912.59;;;4.38;91.35
76128;BME280;64873;50.102;14.434;2023-11-19T08:00:26;98903.41;;;4.19;91.73
76128;BME280;64873;50.102;14.434;2023-11-19T08:02:52;98889.19;;;4.20;92.19
76128;BME280;64873;50.102;14.434;2023-11-19T08:05:17;98906.06;;;4.19;92.53
76128;BME280;64873;50.102;14.434;2023-11-19T08:07:42;98900.75;;;4.34;92.86
76128;BME280;64873;50.102;14.434;2023-11-19T08:10:08;98887.69;;;4.47;92.32
76128;BME280;64873;50.102;14.434;2023-11-19T08:12:36;98896.63;;;4.46;92.51
76128;BME280;64873;50.102;14.434;2023-11-19T08:15:05;98889.78;;;4.37;92.35
76128;BME280;64873;50.102;14.434;2023-11-19T08:17:32;98883.63;;;4.30;93.15
76128;BME280;64873;50.102;14.434;2023-11-19T08:19:57;98879.81;;;4.54;93.04
76128;BME280;64873;50.102;14.434;2023-11-19T08:22:25;98881.13;;;4.65;92.53
76128;BME280;64873;50.102;14.434;2023-11-19T08:24:50;98875.59;;;4.81;93.29
76128;BME280;64873;50.102;14.434;2023-11-19T08:27:16;98860.59;;;4.67;92.54
76128;BME280;64873;50.102;14.434;2023-11-19T08:29:41;98852.66;;;4.67;92.87
76128;BME280;64873;50.102;14.434;2023-11-19T08:32:07;98859.56;;;4.68;92.70
76128;BME280;64873;50.102;14.434;2023-11-19T08:34:32;98867.50;;;4.68;92.65
76128;BME280;64873;50.102;14.434;2023-11-19T08:36:59;98856.47;;;4.86;92.25
76128;BME280;64873;50.102;14.434;2023-11-19T08:39:25;98845.06;;;4.85;92.60
76128;BME280;64873;50.102;14.434;2023-11-19T08:41:50;98847.34;;;4.88;92.02
76128;BME280;64873;50.102;14.434;2023-11-19T08:44:16;98857.19;;;4.94;92.15
76128;BME280;64873;50.102;14.434;2023-11-19T08:46:51;98856.72;;;4.91;91.71
76128;BME280;64873;50.102;14.434;2023-11-19T08:49:16;98868.59;;;4.73;92.30
76128;BME280;64873;50.102;14.434;2023-11-19T08:51:42;98870.44;;;4.94;92.15
76128;BME280;64873;50.102;14.434;2023-11-19T08:54:08;98872.69;;;4.97;92.39
76128;BME280;64873;50.102;14.434;2023-11-19T08:56:33;98861.84;;;4.92;92.39
76128;BME280;64873;50.102;14.434;2023-11-19T08:59:00;98862.06;;;5.19;92.72
76128;BME280;64873;50.102;14.434;2023-11-19T09:01:26;98863.84;;;5.12;92.23
76128;BME280;64873;50.102;14.434;2023-11-19T09:03:51;98871.41;;;5.15;91.54
76128;BME280;64873;50.102;14.434;2023-11-19T09:06:17;98875.81;;;5.07;91.99
76128;BME280;64873;50.102;14.434;2023-11-19T09:08:43;98860.69;;;5.01;92.34
76128;BME280;64873;50.102;14.434;2023-11-19T09:11:08;98863.16;;;5.03;92.17
76128;BME280;64873;50.102;14.434;2023-11-19T09:13:35;98872.16;;;5.08;92.21
76128;BME280;64873;50.102;14.434;2023-11-19T09:16:00;98874.00;;;5.36;92.80
76128;BME280;64873;50.102;14.434;2023-11-19T09:18:29;98861.16;;;5.68;92.58
76128;BME280;64873;50.102;14.434;2023-11-19T09:20:54;98854.22;;;5.67;91.51
76128;BME280;64873;50.102;14.434;2023-11-19T09:23:20;98856.66;;;6.03;91.81
76128;BME280;64873;50.102;14.434;2023-11-19T09:25:45;98863.59;;;5.97;91.06
76128;BME280;64873;50.102;14.434;2023-11-19T09:28:11;98845.88;;;6.04;91.10
76128;BME280;64873;50.102;14.434;2023-11-19T09:30:36;98841.19;;;5.72;89.96
76128;BME280;64873;50.102;14.434;2023-11-19T09:33:02;98842.91;;;5.86;90.46
76128;BME280;64873;50.102;14.434;2023-11-19T09:35:27;98843.06;;;5.78;89.75
76128;BME280;64873;50.102;14.434;2023-11-19T09:37:52;98832.47;;;6.26;91.44
76128;BME280;64873;50.102;14.434;2023-11-19T09:40:18;98837.50;;;6.68;90.65
76128;BME280;64873;50.102;14.434;2023-11-19T09:42:44;98843.19;;;6.79;88.28
76128;BME280;64873;50.102;14.434;2023-11-19T09:45:17;98849.66;;;6.43;88.19
76128;BME280;64873;50.102;14.434;2023-11-19T09:47:44;98845.94;;;6.18;89.10
76128;BME280;64873;50.102;14.434;2023-11-19T09:50:22;98844.38;;;6.50;91.05
76128;BME280;64873;50.102;14.434;2023-11-19T09:52:47;98843.16;;;6.52;90.98
76128;BME280;64873;50.102;14.434;2023-11-19T09:55:14;98838.69;;;6.79;91.27
76128;BME280;64873;50.102;14.434;2023-11-19T09:57:40;98837.88;;;6.79;90.70
76128;BME280;64873;50.102;14.434;2023-11-19T10:00:07;98821.13;;;6.85;88.78
76128;BME280;64873;50.102;14.434;2023-11-19T10:02:36;98811.97;;;6.94;87.49
76128;BME280;64873;50.102;14.434;2023-11-19T10:05:04;98814.78;;;7.39;89.93
76128;BME280;64873;50.102;14.434;2023-11-19T10:07:31;98814.38;;;7.29;89.39
76128;BME280;64873;50.102;14.434;2023-11-19T10:10:02;98811.31;;;7.18;87.80
76128;BME280;64873;50.102;14.434;2023-11-19T10:12:29;98803.16;;;7.33;90.31
76128;BME280;64873;50.102;14.434;2023-11-19T10:14:58;98802.28;;;7.33;89.96
76128;BME280;64873;50.102;14.434;2023-11-19T10:17:33;98794.06;;;7.54;87.75
76128;BME280;64873;50.102;14.434;2023-11-19T10:19:58;98785.78;;;7.89;88.61
76128;BME280;64873;50.102;14.434;2023-11-19T10:22:24;98798.31;;;8.20;86.51
76128;BME280;64873;50.102;14.434;2023-11-19T10:24:50;98785.00;;;8.58;86.51
76128;BME280;64873;50.102;14.434;2023-11-19T10:27:16;98784.50;;;8.74;85.08
76128;BME280;64873;50.102;14.434;2023-11-19T10:29:45;98773.03;;;8.74;85.30
76128;BME280;64873;50.102;14.434;2023-11-19T10:32:12;98782.34;;;8.83;86.04
76128;BME280;64873;50.102;14.434;2023-11-19T10:34:38;98777.13;;;8.70;86.15
76128;BME280;64873;50.102;14.434;2023-11-19T10:37:05;98769.88;;;9.02;85.36
76128;BME280;64873;50.102;14.434;2023-11-19T10:39:52;98753.72;;;9.22;84.15
76128;BME280;64873;50.102;14.434;2023-11-19T10:42:19;98756.00;;;9.37;83.41
76128;BME280;64873;50.102;14.434;2023-11-19T10:44:45;98757.94;;;9.11;85.03
76128;BME280;64873;50.102;14.434;2023-11-19T10:47:11;98761.19;;;9.13;85.63
76128;BME280;64873;50.102;14.434;2023-11-19T10:49:39;98763.66;;;9.51;86.63
76128;BME280;64873;50.102;14.434;2023-11-19T10:52:05;98760.59;;;9.29;85.48
76128;BME280;64873;50.102;14.434;2023-11-19T10:54:34;98755.44;;;9.34;85.41
76128;BME280;64873;50.102;14.434;2023-11-19T10:57:01;98757.53;;;9.51;85.13
76128;BME280;64873;50.102;14.434;2023-11-19T10:59:31;98757.44;;;9.57;84.71
76128;BME280;64873;50.102;14.434;2023-11-19T11:02:00;98747.59;;;9.58;83.79
76128;BME280;64873;50.102;14.434;2023-11-19T11:04:26;98749.34;;;9.64;84.00
76128;BME280;64873;50.102;14.434;2023-11-19T11:06:58;98731.78;;;9.75;83.23
76128;BME280;64873;50.102;14.434;2023-11-19T11:09:26;98734.94;;;9.83;82.33
76128;BME280;64873;50.102;14.434;2023-11-19T11:11:54;98734.47;;;9.75;82.80
76128;BME280;64873;50.102;14.434;2023-11-19T11:14:21;98740.50;;;9.82;83.09
76128;BME280;64873;50.102;14.434;2023-11-19T11:16:48;98738.31;;;10.09;82.32
76128;BME280;64873;50.102;14.434;2023-11-19T11:19:16;98726.00;;;10.08;82.18
76128;BME280;64873;50.102;14.434;2023-11-19T11:21:44;98723.78;;;10.05;81.89
76128;BME280;64873;50.102;14.434;2023-11-19T11:27:31;98708.34;;;10.07;81.43
76128;BME280;64873;50.102;14.434;2023-11-19T11:35:42;98722.31;;;10.09;80.77
76128;BME280;64873;50.102;14.434;2023-11-19T11:38:13;98725.56;;;10.11;80.68
76128;BME280;64873;50.102;14.434;2023-11-19T11:40:41;98733.78;;;10.09;80.65
76128;BME280;64873;50.102;14.434;2023-11-19T11:49:02;98724.88;;;10.15;80.13
76128;BME280;64873;50.102;14.434;2023-11-19T12:02:03;98720.66;;;10.26;79.46
76128;BME280;64873;50.102;14.434;2023-11-19T12:04:29;98728.66;;;10.26;79.43
76128;BME280;64873;50.102;14.434;2023-11-19T12:07:19;98720.31;;;10.34;79.40
76128;BME280;64873;50.102;14.434;2023-11-19T12:10:08;98719.03;;;10.37;79.14
76128;BME280;64873;50.102;14.434;2023-11-19T12:12:36;98714.06;;;10.10;80.42
76128;BME280;64873;50.102;14.434;2023-11-19T12:15:08;98718.50;;;10.17;80.67
76128;BME280;64873;50.102;14.434;2023-11-19T12:17:43;98721.97;;;10.17;80.50
76128;BME280;64873;50.102;14.434;2023-11-19T12:20:14;98700.31;;;10.25;80.36
76128;BME280;64873;50.102;14.434;2023-11-19T12:22:46;98708.00;;;10.33;79.76
76128;BME280;64873;50.102;14.434;2023-11-19T12:25:13;98692.56;;;10.47;79.01
76128;BME280;64873;50.102;14.434;2023-11-19T12:27:49;98708.06;;;10.68;78.03
76128;BME280;64873;50.102;14.434;2023-11-19T12:30:24;98692.97;;;10.74;77.97
76128;BME280;64873;50.102;14.434;2023-11-19T12:32:50;98709.00;;;10.74;77.76
76128;BME280;64873;50.102;14.434;2023-11-19T12:35:16;98703.41;;;10.64;77.91
76128;BME280;64873;50.102;14.434;2023-11-19T12:40:17;98680.25;;;10.34;79.27
76128;BME280;64873;50.102;14.434;2023-11-19T12:42:46;98685.59;;;10.34;79.72
76128;BME280;64873;50.102;14.434;2023-11-19T12:45:12;98676.78;;;10.34;79.51
76128;BME280;64873;50.102;14.434;2023-11-19T12:47:39;98669.31;;;10.24;79.84
76128;BME280;64873;50.102;14.434;2023-11-19T12:50:09;98671.06;;;10.30;79.84
76128;BME280;64873;50.102;14.434;2023-11-19T12:52:38;98672.78;;;10.25;80.44
76128;BME280;64873;50.102;14.434;2023-11-19T12:55:26;98669.63;;;10.16;81.03
76128;BME280;64873;50.102;14.434;2023-11-19T12:57:52;98672.81;;;9.95;81.81
76128;BME280;64873;50.102;14.434;2023-11-19T13:00:23;98687.56;;;9.97;82.67
76128;BME280;64873;50.102;14.434;2023-11-19T13:02:54;98673.50;;;10.02;82.46
76128;BME280;64873;50.102;14.434;2023-11-19T13:05:25;98667.19;;;10.14;81.92
76128;BME280;64873;50.102;14.434;2023-11-19T13:08:04;98673.03;;;10.23;81.50
76128;BME280;64873;50.102;14.434;2023-11-19T13:10:32;98670.38;;;10.35;81.06
76128;BME280;64873;50.102;14.434;2023-11-19T13:13:08;98668.19;;;10.44;80.84
76128;BME280;64873;50.102;14.434;2023-11-19T13:15:36;98656.22;;;10.34;80.91
76128;BME280;64873;50.102;14.434;2023-11-19T13:18:02;98652.84;;;10.27;81.54
76128;BME280;64873;50.102;14.434;2023-11-19T13:20:29;98645.31;;;10.06;82.33
76128;BME280;64873;50.102;14.434;2023-11-19T13:23:00;98657.97;;;9.99;83.12
76128;BME280;64873;50.102;14.434;2023-11-19T13:25:33;98653.97;;;9.89;83.39
76128;BME280;64873;50.102;14.434;2023-11-19T13:28:02;98649.44;;;9.90;83.50
76128;BME280;64873;50.102;14.434;2023-11-19T13:30:28;98643.78;;;9.86;83.21